Time;durP1;ratioP1;P1;durP2;ratioP2;P2;SDS_P1;SDS_P2;PMS_P1;PMS_P2;Temp;Humidity;BMP_temperature;BMP_pressure;BME280_temperature;BME280_humidity;BME280_pressure;Samples;Min_cycle;Max_cycle;Signal;HPM_P1;HPM_P2
2022/01/17 00:01:42;;;;;;;8.33;4.80;;;6.50;99.90;;;;;;5105386;28;20453;-82
2022/01/17 00:04:11;;;;;;;5.60;4.10;;;6.50;99.90;;;;;;5104249;27;20452;-81
2022/01/17 00:06:41;;;;;;;7.83;4.50;;;6.30;99.90;;;;;;5105451;27;20444;-81
2022/01/17 00:09:12;;;;;;;6.30;4.33;;;6.20;99.90;;;;;;5104579;27;20505;-82
2022/01/17 00:11:44;;;;;;;5.97;3.17;;;6.10;99.90;;;;;;5102570;27;20557;-82
2022/01/17 00:14:16;;;;;;;6.37;4.40;;;6.20;99.90;;;;;;5109952;27;20460;-82
2022/01/17 00:16:50;;;;;;;4.65;3.60;;;6.20;99.90;;;;;;5098060;27;20757;-81
2022/01/17 00:19:36;;;;;;;8.30;4.00;;;6.00;99.90;;;;;;5105810;27;20201;-81
2022/01/17 00:22:04;;;;;;;5.30;3.67;;;5.90;99.90;;;;;;5105172;27;20204;-81
2022/01/17 00:24:34;;;;;;;7.20;2.80;;;5.60;99.90;;;;;;5099764;28;20644;-81
2022/01/17 00:27:03;;;;;;;4.85;3.20;;;5.80;99.90;;;;;;5099319;28;20507;-80
2022/01/17 00:29:32;;;;;;;7.95;4.07;;;5.80;99.90;;;;;;5103770;28;20460;-82
2022/01/17 00:32:01;;;;;;;4.75;3.17;;;6.00;99.90;;;;;;5096371;28;20187;-81
2022/01/17 00:34:29;;;;;;;6.63;4.32;;;6.30;99.90;;;;;;5103775;28;20276;-81
2022/01/17 00:36:58;;;;;;;6.57;3.63;;;6.50;99.90;;;;;;5105799;27;20199;-82
2022/01/17 00:39:26;;;;;;;6.63;3.72;;;6.40;99.90;;;;;;5101338;27;20203;-81
2022/01/17 00:41:56;;;;;;;6.75;3.80;;;6.40;99.90;;;;;;5107663;27;20252;-81
2022/01/17 00:44:24;;;;;;;3.67;3.03;;;6.20;99.90;;;;;;5104433;28;20688;-80
2022/01/17 00:46:53;;;;;;;4.80;4.13;;;6.30;99.90;;;;;;5101815;28;20435;-82
2022/01/17 00:49:21;;;;;;;4.60;3.73;;;6.50;99.90;;;;;;5109265;27;20480;-82
2022/01/17 00:51:50;;;;;;;4.97;3.93;;;6.70;99.90;;;;;;5104232;28;20464;-81
2022/01/17 00:54:18;;;;;;;6.83;4.27;;;6.80;99.90;;;;;;5108608;28;20485;-81
2022/01/17 00:56:47;;;;;;;4.77;3.03;;;6.80;99.90;;;;;;5100446;28;20572;-80
2022/01/17 00:59:17;;;;;;;4.57;4.10;;;6.90;99.90;;;;;;5103368;28;20943;-81
2022/01/17 01:01:45;;;;;;;5.93;4.60;;;6.90;99.90;;;;;;5100154;28;20465;-81
2022/01/17 01:04:14;;;;;;;5.13;3.80;;;6.80;99.90;;;;;;5101644;28;20523;-82
2022/01/17 01:06:42;;;;;;;5.20;3.73;;;6.90;99.90;;;;;;5102887;28;20944;-81
2022/01/17 01:09:10;;;;;;;5.03;3.77;;;7.20;99.90;;;;;;5103612;28;20458;-81
2022/01/17 01:11:39;;;;;;;5.50;3.73;;;6.90;99.90;;;;;;5104801;28;20445;-82
2022/01/17 01:14:07;;;;;;;5.43;3.80;;;7.00;99.90;;;;;;5104463;28;20967;-81
2022/01/17 01:16:37;;;;;;;5.35;4.30;;;6.80;99.90;;;;;;5101814;28;20500;-81
2022/01/17 01:27:43;;;;;;;6.70;4.20;;;7.00;99.90;;;;;;5106059;28;20468;-80
2022/01/17 01:30:14;;;;;;;7.27;4.27;;;7.10;99.90;;;;;;5102402;28;21128;-81
2022/01/17 01:32:48;;;;;;;7.50;4.47;;;7.10;99.90;;;;;;5102126;28;20505;-81
2022/01/17 01:35:20;;;;;;;7.40;4.37;;;7.20;99.90;;;;;;5100927;28;20474;-80
2022/01/17 01:37:49;;;;;;;5.63;3.90;;;7.20;99.90;;;;;;5100260;27;20528;-82
2022/01/17 01:40:18;;;;;;;5.97;4.00;;;7.10;99.90;;;;;;5104686;28;20525;-81
2022/01/17 01:42:48;;;;;;;6.73;3.90;;;7.20;99.90;;;;;;5101504;28;20441;-81
2022/01/17 01:45:17;;;;;;;5.33;4.40;;;7.20;99.90;;;;;;5096399;28;20484;-81
2022/01/17 01:47:47;;;;;;;7.23;3.40;;;7.40;99.90;;;;;;5105868;28;20473;-82
2022/01/17 01:50:15;;;;;;;7.37;4.63;;;7.20;99.90;;;;;;5115961;27;21085;-81
2022/01/17 01:52:44;;;;;;;6.13;3.83;;;7.20;99.90;;;;;;5105758;28;20672;-81
2022/01/17 01:55:15;;;;;;;7.00;4.53;;;7.20;99.90;;;;;;5108671;27;21006;-80
2022/01/17 01:57:44;;;;;;;7.93;4.13;;;7.20;99.90;;;;;;5109285;28;20813;-80
2022/01/17 02:00:15;;;;;;;7.77;4.83;;;7.20;99.90;;;;;;5106277;27;20551;-80
2022/01/17 02:02:44;;;;;;;6.57;4.07;;;7.20;99.90;;;;;;5104209;28;20461;-79
2022/01/17 02:05:14;;;;;;;8.40;4.07;;;7.20;99.90;;;;;;5105716;28;20556;-80
2022/01/17 02:07:45;;;;;;;5.70;3.50;;;7.20;99.90;;;;;;5102989;28;20513;-80
2022/01/17 02:10:14;;;;;;;4.80;3.10;;;7.20;99.90;;;;;;5111739;27;20504;-81
2022/01/17 02:12:43;;;;;;;4.53;3.20;;;7.20;99.90;;;;;;5110149;27;20570;-80
2022/01/17 02:15:15;;;;;;;5.03;3.80;;;7.20;99.90;;;;;;5102496;27;20475;-80
2022/01/17 02:17:52;;;;;;;6.43;2.80;;;7.30;99.90;;;;;;5107859;27;20515;-80
2022/01/17 02:20:24;;;;;;;4.20;3.20;;;7.20;99.90;;;;;;5100979;28;20452;-81
2022/01/17 02:22:53;;;;;;;5.70;3.90;;;7.20;99.90;;;;;;5095341;28;20453;-79
2022/01/17 02:25:21;;;;;;;5.57;3.70;;;7.20;99.90;;;;;;5105116;28;20876;-79
2022/01/17 02:27:50;;;;;;;9.27;3.97;;;7.30;99.90;;;;;;5105631;27;20944;-80
2022/01/17 02:30:22;;;;;;;7.70;4.60;;;7.30;99.90;;;;;;5104342;28;20566;-80
2022/01/17 02:32:50;;;;;;;6.80;4.10;;;7.30;99.90;;;;;;5103400;27;20484;-80
2022/01/17 02:35:23;;;;;;;7.30;4.43;;;7.30;99.90;;;;;;5101394;28;20573;-79
2022/01/17 02:37:52;;;;;;;6.03;4.90;;;7.30;99.90;;;;;;5098416;27;20465;-80
2022/01/17 02:40:22;;;;;;;6.17;3.70;;;7.10;99.90;;;;;;5106916;28;20823;-80
2022/01/17 02:42:55;;;;;;;5.43;3.77;;;7.00;99.90;;;;;;5103005;28;20492;-80
2022/01/17 02:45:31;;;;;;;5.70;3.90;;;7.00;99.90;;;;;;5111998;27;20480;-82
2022/01/17 02:48:02;;;;;;;5.43;4.10;;;7.10;99.90;;;;;;5096789;27;20462;-82
2022/01/17 02:50:32;;;;;;;7.60;5.32;;;7.10;99.90;;;;;;5102928;27;20936;-81
2022/01/17 02:53:01;;;;;;;5.97;4.23;;;7.00;99.90;;;;;;5104406;28;20202;-82
2022/01/17 02:55:30;;;;;;;8.13;3.93;;;7.10;99.90;;;;;;5103452;27;20488;-81
2022/01/17 02:57:59;;;;;;;5.53;4.00;;;7.10;99.90;;;;;;5100397;27;20507;-80
2022/01/17 03:00:28;;;;;;;9.13;4.63;;;7.20;99.90;;;;;;5111757;27;20503;-81
2022/01/17 03:02:56;;;;;;;6.50;4.20;;;7.20;99.90;;;;;;5101180;28;21705;-81
2022/01/17 03:05:25;;;;;;;7.27;4.43;;;7.20;99.90;;;;;;5106042;28;20626;-81
2022/01/17 03:07:54;;;;;;;8.40;5.10;;;7.20;99.90;;;;;;5103234;28;20456;-82
2022/01/17 03:10:35;;;;;;;9.07;4.13;;;7.20;99.90;;;;;;5106140;27;20468;-82
2022/01/17 03:13:04;;;;;;;6.03;3.80;;;7.20;99.90;;;;;;5104292;28;20455;-82
2022/01/17 03:15:33;;;;;;;6.70;4.43;;;7.20;99.90;;;;;;5104744;27;20583;-82
2022/01/17 03:18:02;;;;;;;5.33;3.73;;;7.20;99.90;;;;;;5106555;27;20445;-83
2022/01/17 03:20:31;;;;;;;7.57;3.30;;;7.20;99.90;;;;;;5105451;27;20812;-82
2022/01/17 03:23:00;;;;;;;7.00;4.20;;;7.20;99.90;;;;;;5104937;28;20464;-83
2022/01/17 03:25:29;;;;;;;7.40;3.60;;;7.20;99.90;;;;;;5105089;27;20554;-81
2022/01/17 03:27:57;;;;;;;5.63;3.53;;;7.10;99.90;;;;;;5106160;28;20444;-81
2022/01/17 03:30:26;;;;;;;3.90;3.60;;;7.20;99.90;;;;;;5108816;27;20494;-82
2022/01/17 03:32:54;;;;;;;6.23;4.40;;;7.10;99.90;;;;;;5103635;27;20453;-82
2022/01/17 03:35:23;;;;;;;6.90;3.83;;;7.10;99.90;;;;;;5108972;28;20518;-82
2022/01/17 03:37:51;;;;;;;6.20;4.33;;;7.10;99.90;;;;;;5098041;28;20455;-81
2022/01/17 03:40:21;;;;;;;5.63;3.50;;;7.00;99.90;;;;;;5108416;27;20452;-82
2022/01/17 03:42:49;;;;;;;5.30;3.53;;;6.80;99.90;;;;;;5106940;27;20287;-82
2022/01/17 03:45:18;;;;;;;6.40;3.93;;;6.50;99.90;;;;;;5112923;27;21402;-82
2022/01/17 03:47:48;;;;;;;8.63;4.10;;;6.60;99.90;;;;;;5107140;28;21177;-82
2022/01/17 03:50:19;;;;;;;5.20;3.47;;;6.70;99.90;;;;;;5101707;27;20566;-80
2022/01/17 03:52:48;;;;;;;9.33;4.10;;;6.60;99.90;;;;;;5103037;27;20449;-80
2022/01/17 03:55:18;;;;;;;5.47;3.50;;;6.70;99.90;;;;;;5107117;28;20483;-81
2022/01/17 03:57:49;;;;;;;6.20;4.10;;;6.80;99.90;;;;;;5105893;27;20509;-80
2022/01/17 04:00:20;;;;;;;4.40;2.37;;;6.90;99.90;;;;;;5101248;28;20449;-82
2022/01/17 04:02:48;;;;;;;4.30;2.80;;;7.00;99.90;;;;;;5104770;28;20433;-80
2022/01/17 04:05:17;;;;;;;6.73;3.00;;;7.00;99.90;;;;;;5096690;28;20452;-80
2022/01/17 04:07:45;;;;;;;3.13;2.77;;;7.10;99.90;;;;;;5103571;28;20449;-80
2022/01/17 04:10:14;;;;;;;4.17;2.80;;;7.10;99.90;;;;;;5104327;28;20552;-81
2022/01/17 04:12:43;;;;;;;4.93;3.50;;;7.10;99.90;;;;;;5102735;28;20453;-80
2022/01/17 04:15:13;;;;;;;5.90;3.07;;;7.10;99.90;;;;;;5115174;27;20250;-81
2022/01/17 04:17:43;;;;;;;4.47;2.60;;;7.40;99.90;;;;;;5102742;27;20498;-81
2022/01/17 04:20:24;;;;;;;3.67;2.50;;;7.40;99.90;;;;;;5106465;27;20440;-81
2022/01/17 04:22:54;;;;;;;4.83;3.17;;;7.10;99.90;;;;;;5099920;28;21003;-82
2022/01/17 04:25:23;;;;;;;4.50;2.57;;;7.20;99.90;;;;;;5106136;27;20470;-81
2022/01/17 04:27:52;;;;;;;4.60;2.70;;;7.20;99.90;;;;;;5100715;28;20452;-80
2022/01/17 04:30:22;;;;;;;5.00;3.07;;;7.20;99.90;;;;;;5099335;28;20489;-79
2022/01/17 04:32:51;;;;;;;4.60;2.27;;;7.10;99.90;;;;;;5104224;28;20470;-80
2022/01/17 04:35:21;;;;;;;4.17;3.00;;;7.10;99.90;;;;;;5099520;28;20552;-80
2022/01/17 04:37:52;;;;;;;4.23;2.53;;;7.20;99.90;;;;;;5102973;28;20652;-80
2022/01/17 04:40:20;;;;;;;4.07;2.90;;;7.10;99.90;;;;;;5103927;28;21460;-80
2022/01/17 04:42:50;;;;;;;5.10;2.97;;;7.20;99.90;;;;;;5109115;27;20456;-80
2022/01/17 04:45:19;;;;;;;3.87;3.00;;;7.30;99.90;;;;;;5097358;28;20531;-81
2022/01/17 04:47:50;;;;;;;4.47;3.07;;;7.30;99.90;;;;;;5104938;27;20504;-80
2022/01/17 04:50:21;;;;;;;6.33;3.20;;;7.20;99.90;;;;;;5104281;28;20488;-80
2022/01/17 04:52:50;;;;;;;4.97;3.07;;;7.20;99.90;;;;;;5104787;28;20451;-81
2022/01/17 04:55:20;;;;;;;5.83;3.27;;;7.20;99.90;;;;;;5105605;28;20497;-81
2022/01/17 04:57:49;;;;;;;3.30;2.80;;;7.30;99.90;;;;;;5103090;28;20450;-80
2022/01/17 05:00:19;;;;;;;4.47;3.30;;;7.30;99.90;;;;;;5111988;28;20463;-81
2022/01/17 05:02:49;;;;;;;5.60;3.00;;;7.20;99.90;;;;;;5102151;28;20445;-82
2022/01/17 05:05:18;;;;;;;4.50;3.30;;;7.30;99.90;;;;;;5104695;28;20530;-81
2022/01/17 05:07:46;;;;;;;4.63;3.17;;;7.30;99.90;;;;;;5099396;28;20453;-82
2022/01/17 05:10:16;;;;;;;4.77;2.47;;;7.20;99.90;;;;;;5104832;27;20469;-81
2022/01/17 05:12:45;;;;;;;4.53;2.50;;;7.20;99.90;;;;;;5104084;28;20796;-81
2022/01/17 05:15:29;;;;;;;4.83;3.20;;;7.20;99.90;;;;;;5109440;27;20465;-81
2022/01/17 05:18:13;;;;;;;6.00;3.47;;;7.20;99.90;;;;;;5105728;28;20457;-80
2022/01/17 05:20:42;;;;;;;4.10;3.20;;;7.30;99.90;;;;;;5108479;27;20437;-81
2022/01/17 05:23:11;;;;;;;5.73;2.77;;;7.20;99.90;;;;;;5105652;27;20448;-82
2022/01/17 05:25:39;;;;;;;6.40;2.93;;;7.20;99.90;;;;;;5104587;27;20472;-81
2022/01/17 05:28:07;;;;;;;4.32;3.28;;;7.20;99.90;;;;;;5112771;27;20489;-79
2022/01/17 05:30:36;;;;;;;5.47;2.97;;;7.20;99.90;;;;;;5098846;27;20222;-80
2022/01/17 05:33:05;;;;;;;4.40;3.50;;;7.20;99.90;;;;;;5105370;27;20437;-80
2022/01/17 05:35:34;;;;;;;5.93;4.00;;;7.20;99.90;;;;;;5104634;28;20449;-81
2022/01/17 05:38:02;;;;;;;5.53;3.50;;;7.10;99.90;;;;;;5096650;27;20192;-80
2022/01/17 05:40:31;;;;;;;4.73;3.30;;;7.10;99.90;;;;;;5102459;27;20604;-80
2022/01/17 05:42:59;;;;;;;5.00;2.77;;;7.20;99.90;;;;;;5106445;28;20484;-80
2022/01/17 05:45:27;;;;;;;4.40;2.30;;;7.20;99.90;;;;;;5101322;27;21392;-78
2022/01/17 05:47:56;;;;;;;7.00;2.70;;;7.20;99.90;;;;;;5103148;27;20988;-80
2022/01/17 05:50:26;;;;;;;5.60;2.83;;;7.20;99.90;;;;;;5101650;27;20455;-79
2022/01/17 05:52:54;;;;;;;4.60;3.13;;;7.30;99.90;;;;;;5097814;27;20460;-79
2022/01/17 05:55:22;;;;;;;5.27;3.10;;;7.20;99.90;;;;;;5098435;27;20576;-80
2022/01/17 05:57:51;;;;;;;6.07;3.03;;;7.20;99.90;;;;;;5101746;27;20529;-80
2022/01/17 06:00:19;;;;;;;4.90;3.27;;;7.20;99.90;;;;;;5102992;27;20480;-79
2022/01/17 06:02:48;;;;;;;7.10;3.10;;;7.20;99.90;;;;;;5106764;27;20484;-80
2022/01/17 06:05:16;;;;;;;4.93;3.03;;;7.20;99.90;;;;;;5101610;27;20820;-80
2022/01/17 06:07:46;;;;;;;2.90;2.57;;;7.20;99.90;;;;;;5104182;27;21390;-80
2022/01/17 06:10:14;;;;;;;6.77;3.80;;;7.10;99.90;;;;;;5103640;28;21361;-80
2022/01/17 06:12:43;;;;;;;4.23;2.50;;;7.10;99.90;;;;;;5102177;28;20483;-79
2022/01/17 06:15:11;;;;;;;4.05;2.70;;;7.20;99.90;;;;;;5098133;28;20468;-79
2022/01/17 06:17:40;;;;;;;3.30;2.60;;;7.20;99.90;;;;;;5115044;27;20209;-80
2022/01/17 06:20:09;;;;;;;3.43;2.00;;;7.20;99.90;;;;;;5094308;27;20548;-80
2022/01/17 06:22:38;;;;;;;3.80;3.50;;;7.30;99.90;;;;;;5113402;27;20438;-81
2022/01/17 06:25:08;;;;;;;2.50;2.30;;;7.30;99.90;;;;;;5101095;28;20268;-80
2022/01/17 06:27:37;;;;;;;5.87;3.17;;;7.40;99.90;;;;;;5098734;27;20467;-78
2022/01/17 06:30:11;;;;;;;3.20;2.70;;;7.40;99.90;;;;;;5097068;27;20560;-80
2022/01/17 06:32:40;;;;;;;2.00;1.77;;;7.40;99.90;;;;;;5100863;28;20477;-80
2022/01/17 06:35:11;;;;;;;3.30;1.90;;;7.40;99.90;;;;;;5105296;28;20476;-80
2022/01/17 06:37:40;;;;;;;3.57;2.47;;;7.40;99.90;;;;;;5103806;28;20546;-79
2022/01/17 06:40:10;;;;;;;3.23;2.00;;;7.40;99.90;;;;;;5107347;28;20552;-80
2022/01/17 06:42:39;;;;;;;3.17;2.78;;;7.40;99.90;;;;;;5096929;28;20449;-80
2022/01/17 06:45:09;;;;;;;3.60;2.30;;;7.40;99.90;;;;;;5105736;28;20287;-80
2022/01/17 06:47:38;;;;;;;2.90;2.70;;;7.40;99.90;;;;;;5103965;28;20528;-78
2022/01/17 06:50:08;;;;;;;3.00;2.33;;;7.40;99.90;;;;;;5101301;28;20954;-80
2022/01/17 06:52:36;;;;;;;3.43;3.20;;;7.40;99.90;;;;;;5103768;28;20467;-80
2022/01/17 06:55:06;;;;;;;3.40;2.40;;;7.40;99.90;;;;;;5103702;28;21073;-80
2022/01/17 06:57:36;;;;;;;3.30;1.90;;;7.40;99.90;;;;;;5103323;28;20460;-80
2022/01/17 07:00:06;;;;;;;3.00;2.00;;;7.40;99.90;;;;;;5102037;28;20928;-79
2022/01/17 07:02:34;;;;;;;2.53;2.23;;;7.40;99.90;;;;;;5098086;28;20438;-80
2022/01/17 07:05:03;;;;;;;1.70;1.60;;;7.70;99.90;;;;;;5098975;28;20755;-80
2022/01/17 07:07:32;;;;;;;5.10;2.20;;;7.50;99.90;;;;;;5104537;28;20456;-80
2022/01/17 07:10:04;;;;;;;3.00;1.97;;;7.50;99.90;;;;;;5104946;27;20461;-80
2022/01/17 07:12:35;;;;;;;3.73;2.17;;;7.30;99.90;;;;;;5108834;27;20568;-80
2022/01/17 07:15:06;;;;;;;3.80;2.50;;;7.30;99.90;;;;;;5102485;28;20491;-80
2022/01/17 07:17:34;;;;;;;6.87;2.40;;;7.20;99.90;;;;;;5104102;28;20540;-80
2022/01/17 07:20:04;;;;;;;2.00;1.83;;;7.10;99.90;;;;;;5098912;28;20825;-80
2022/01/17 07:22:32;;;;;;;4.73;2.60;;;7.10;99.90;;;;;;5105069;28;20445;-81
2022/01/17 07:25:01;;;;;;;4.20;1.80;;;7.10;99.90;;;;;;5097908;28;20465;-79
2022/01/17 07:27:34;;;;;;;3.20;2.10;;;6.90;1.00;;;;;;5096181;28;20547;-80
2022/01/17 07:30:06;;;;;;;3.03;2.10;;;7.00;1.00;;;;;;5098432;28;21090;-81
2022/01/17 07:32:35;;;;;;;2.90;2.70;;;7.00;1.00;;;;;;5101459;28;20473;-81
2022/01/17 07:35:04;;;;;;;2.63;2.43;;;6.70;1.00;;;;;;5100809;28;20473;-80
2022/01/17 07:37:33;;;;;;;3.03;2.10;;;6.60;1.00;;;;;;5099997;27;20450;-79
2022/01/17 07:40:02;;;;;;;3.42;2.20;;;6.40;1.00;;;;;;5105067;28;20273;-79
2022/01/17 07:42:30;;;;;;;2.87;2.20;;;6.00;51.50;;;;;;5102229;28;20203;-79
2022/01/17 07:45:08;;;;;;;2.93;2.60;;;5.80;99.90;;;;;;5103927;28;20544;-80
2022/01/17 07:47:42;;;;;;;3.10;1.73;;;5.50;1.00;;;;;;5101221;28;20457;-78
2022/01/17 07:50:15;;;;;;;4.03;2.73;;;5.70;1.00;;;;;;5101027;28;20446;-79
2022/01/17 07:52:45;;;;;;;5.57;2.58;;;5.90;99.90;;;;;;5101041;28;20460;-79
2022/01/17 07:55:14;;;;;;;2.20;2.00;;;5.80;99.90;;;;;;5094818;28;20215;-79
2022/01/17 07:57:43;;;;;;;2.95;2.05;;;6.00;99.90;;;;;;5101258;28;20209;-79
2022/01/17 08:00:14;;;;;;;4.38;2.50;;;5.90;99.90;;;;;;5102143;28;20211;-79
2022/01/17 08:02:44;;;;;;;2.17;1.80;;;6.10;99.90;;;;;;5100034;28;20213;-80
2022/01/17 08:05:14;;;;;;;4.03;2.28;;;6.30;20.00;;;;;;5102227;28;20828;-79
2022/01/17 08:07:43;;;;;;;2.08;1.70;;;6.30;1.00;;;;;;5091489;28;20191;-80
2022/01/17 08:10:12;;;;;;;3.65;2.42;;;6.20;1.00;;;;;;5097711;28;20268;-79
2022/01/17 08:12:41;;;;;;;2.42;1.80;;;6.10;2.50;;;;;;5099572;28;20211;-79
2022/01/17 08:15:11;;;;;;;2.30;1.77;;;6.10;68.10;;;;;;5098753;28;20697;-79
2022/01/17 08:17:39;;;;;;;2.20;1.30;;;6.30;1.00;;;;;;5101485;28;20984;-80
2022/01/17 08:20:10;;;;;;;2.88;2.10;;;6.30;1.00;;;;;;5096374;27;20961;-79
2022/01/17 08:22:39;;;;;;;7.13;3.22;;;6.40;1.00;;;;;;5099007;28;20195;-79
2022/01/17 08:25:08;;;;;;;3.60;2.73;;;6.40;1.00;;;;;;5105859;28;20281;-80
2022/01/17 08:27:36;;;;;;;5.87;2.77;;;6.50;1.00;;;;;;5100416;28;20458;-79
2022/01/17 08:30:06;;;;;;;3.93;3.13;;;6.40;1.00;;;;;;5096919;28;20528;-79
2022/01/17 08:32:55;;;;;;;2.90;1.87;;;6.30;1.00;;;;;;5099086;28;20466;-79
2022/01/17 08:35:26;;;;;;;4.13;2.53;;;6.30;1.00;;;;;;5103499;28;20511;-79
2022/01/17 08:37:54;;;;;;;3.60;2.40;;;6.40;1.00;;;;;;5097753;28;20540;-80
2022/01/17 08:40:23;;;;;;;4.23;2.10;;;6.50;1.00;;;;;;5103312;28;20545;-80
2022/01/17 08:42:51;;;;;;;2.97;2.67;;;6.50;1.00;;;;;;5100790;28;20446;-82
2022/01/17 08:45:23;;;;;;;5.13;3.13;;;6.40;1.00;;;;;;5091061;28;20469;-79
2022/01/17 08:48:10;;;;;;;4.80;3.05;;;6.50;1.00;;;;;;5109885;27;20459;-80
2022/01/17 08:50:41;;;;;;;4.30;2.37;;;6.40;1.00;;;;;;5099984;28;20668;-80
2022/01/17 08:53:10;;;;;;;4.57;2.00;;;6.70;1.00;;;;;;5101364;28;20470;-80
2022/01/17 08:55:39;;;;;;;3.37;2.40;;;6.80;1.00;;;;;;5096710;28;20556;-81
2022/01/17 08:58:08;;;;;;;7.03;3.43;;;6.80;1.00;;;;;;5098321;28;20551;-78
2022/01/17 09:00:37;;;;;;;5.63;2.33;;;6.70;1.00;;;;;;5095399;28;20483;-80
2022/01/17 09:03:20;;;;;;;6.13;3.40;;;6.80;1.00;;;;;;5103088;28;20274;-80
2022/01/17 09:05:51;;;;;;;2.97;2.15;;;6.80;1.00;;;;;;5096657;28;20442;-79
2022/01/17 09:08:20;;;;;;;3.03;2.43;;;6.90;1.00;;;;;;5103384;28;20504;-80
2022/01/17 09:10:49;;;;;;;3.77;2.17;;;6.80;1.00;;;;;;5103838;28;20472;-80
2022/01/17 09:13:18;;;;;;;5.07;2.23;;;6.80;1.00;;;;;;5100034;28;20476;-79
2022/01/17 09:15:46;;;;;;;3.63;2.37;;;6.70;1.00;;;;;;5096705;28;20934;-79
2022/01/17 09:18:16;;;;;;;3.07;2.23;;;6.70;1.00;;;;;;5099291;28;20454;-79
2022/01/17 09:20:45;;;;;;;4.70;2.77;;;6.60;1.00;;;;;;5102033;28;20442;-80
2022/01/17 09:23:15;;;;;;;3.13;2.60;;;6.50;1.00;;;;;;5102347;28;20819;-80
2022/01/17 09:25:44;;;;;;;3.50;2.63;;;6.50;1.00;;;;;;5099004;28;20481;-78
2022/01/17 09:28:12;;;;;;;7.50;2.40;;;6.60;1.00;;;;;;5104371;28;20471;-80
2022/01/17 09:30:41;;;;;;;5.67;2.43;;;6.50;1.00;;;;;;5096771;28;20477;-79
2022/01/17 09:33:09;;;;;;;4.37;2.67;;;6.40;1.00;;;;;;5102602;28;20461;-79
2022/01/17 09:35:38;;;;;;;3.30;2.93;;;6.40;1.00;;;;;;5107789;28;20504;-79
2022/01/17 09:38:06;;;;;;;4.20;2.20;;;6.50;1.00;;;;;;5094138;28;20684;-79
2022/01/17 09:40:36;;;;;;;3.60;1.97;;;6.80;1.00;;;;;;5106331;28;21163;-79
2022/01/17 09:43:25;;;;;;;2.23;2.03;;;6.90;1.00;;;;;;5097202;28;20441;-79
2022/01/17 09:45:55;;;;;;;2.73;1.93;;;7.10;1.00;;;;;;5101670;28;20560;-80
2022/01/17 09:48:34;;;;;;;3.13;1.83;;;7.30;1.00;;;;;;5096927;28;21105;-80
2022/01/17 09:51:14;;;;;;;3.27;1.87;;;7.20;1.00;;;;;;5102467;28;20512;-80
2022/01/17 09:53:43;;;;;;;1.80;1.70;;;7.10;1.00;;;;;;5103513;28;20468;-79
2022/01/17 09:56:14;;;;;;;2.27;2.07;;;7.20;1.00;;;;;;5104301;28;20560;-79
2022/01/17 09:58:43;;;;;;;2.93;1.63;;;6.90;1.00;;;;;;5100661;28;20560;-78
2022/01/17 10:01:12;;;;;;;1.63;1.50;;;7.00;1.00;;;;;;5101419;28;20461;-80
2022/01/17 10:03:41;;;;;;;2.50;2.10;;;7.20;1.00;;;;;;5103285;28;20461;-79
2022/01/17 10:06:10;;;;;;;2.40;1.85;;;7.30;1.00;;;;;;5094484;28;20459;-80
2022/01/17 10:08:38;;;;;;;1.93;1.70;;;7.40;1.00;;;;;;5107849;27;20197;-80
2022/01/17 10:11:14;;;;;;;3.47;2.20;;;7.60;99.90;;;;;;5108456;28;20457;-80
2022/01/17 10:13:47;;;;;;;2.50;1.87;;;7.60;99.90;;;;;;5102768;27;20476;-79
2022/01/17 10:16:18;;;;;;;4.17;1.97;;;7.50;99.90;;;;;;5105456;28;20470;-79
2022/01/17 10:18:49;;;;;;;3.43;2.10;;;7.80;99.90;;;;;;5099813;27;20475;-80
2022/01/17 10:21:30;;;;;;;2.00;1.90;;;8.20;99.90;;;;;;5107159;27;20536;-80
2022/01/17 10:27:08;;;;;;;2.87;2.23;;;9.10;99.90;;;;;;5105475;28;20978;-79
2022/01/17 10:35:18;;;;;;;1.40;1.30;;;10.50;99.90;;;;;;5105584;28;20477;-79
2022/01/17 10:38:01;;;;;;;4.50;1.73;;;10.90;99.90;;;;;;5104884;28;20530;-80
2022/01/17 10:40:32;;;;;;;1.57;1.43;;;11.10;99.90;;;;;;5100192;28;21232;-80
2022/01/17 10:43:04;;;;;;;2.47;1.60;;;11.50;99.90;;;;;;5104766;28;20526;-80
2022/01/17 10:45:39;;;;;;;2.23;1.90;;;11.40;99.90;;;;;;5106237;28;20470;-80
2022/01/17 10:48:08;;;;;;;1.63;1.53;;;11.30;99.90;;;;;;5106530;28;20484;-81
2022/01/17 10:50:38;;;;;;;1.53;1.10;;;11.20;99.90;;;;;;5103500;27;20461;-80
2022/01/17 10:53:08;;;;;;;1.52;1.00;;;11.10;99.90;;;;;;5100461;27;20457;-81
2022/01/17 10:55:39;;;;;;;2.33;1.20;;;10.90;99.90;;;;;;5098555;28;20231;-81
2022/01/17 10:58:10;;;;;;;2.13;2.03;;;10.70;99.90;;;;;;5106142;28;20507;-80
2022/01/17 11:00:42;;;;;;;1.90;1.27;;;10.40;99.90;;;;;;5095682;27;20549;-81
2022/01/17 11:03:12;;;;;;;1.20;1.10;;;10.30;99.90;;;;;;5102950;27;20544;-80
2022/01/17 11:05:43;;;;;;;1.43;0.80;;;10.20;99.90;;;;;;5108094;28;20510;-81
2022/01/17 11:08:13;;;;;;;2.60;0.80;;;10.00;99.90;;;;;;5104887;27;20554;-81
2022/01/17 11:10:44;;;;;;;1.27;1.17;;;9.80;99.90;;;;;;5102729;27;20446;-81
2022/01/17 11:13:14;;;;;;;1.20;1.10;;;9.70;99.90;;;;;;5107585;28;20489;-79
2022/01/17 11:15:47;;;;;;;0.83;0.73;;;9.60;99.90;;;;;;5097639;28;20476;-81
2022/01/17 11:18:20;;;;;;;3.17;0.83;;;9.50;99.90;;;;;;5094824;28;20502;-81
2022/01/17 11:20:50;;;;;;;0.80;0.80;;;9.50;99.90;;;;;;5102588;28;20525;-80
2022/01/17 11:23:21;;;;;;;0.80;0.80;;;9.40;99.90;;;;;;5099879;28;21793;-80
2022/01/17 11:25:54;;;;;;;1.10;0.90;;;9.40;99.90;;;;;;5094723;28;20469;-80
2022/01/17 11:28:25;;;;;;;0.77;0.73;;;9.40;99.90;;;;;;5095212;28;20505;-81
2022/01/17 11:30:57;;;;;;;1.83;0.80;;;9.40;99.90;;;;;;5095410;28;20459;-80
2022/01/17 11:33:27;;;;;;;0.70;0.70;;;9.40;99.90;;;;;;5092464;27;20521;-80
2022/01/17 11:35:56;;;;;;;1.73;1.20;;;9.40;99.90;;;;;;5105588;28;20519;-80
2022/01/17 11:38:27;;;;;;;2.23;1.30;;;9.40;99.90;;;;;;5101791;28;20454;-80
2022/01/17 11:40:56;;;;;;;5.43;2.20;;;9.30;99.90;;;;;;5096152;28;20582;-81
2022/01/17 11:43:32;;;;;;;2.87;1.40;;;9.30;99.90;;;;;;5106675;28;20475;-80
2022/01/17 11:46:21;;;;;;;1.53;0.90;;;9.30;99.90;;;;;;5096222;28;20478;-79
2022/01/17 11:48:52;;;;;;;1.03;0.83;;;9.30;99.90;;;;;;5095703;28;20475;-80
2022/01/17 11:51:21;;;;;;;1.90;1.00;;;9.30;99.90;;;;;;5104298;28;20965;-80
2022/01/17 11:53:52;;;;;;;0.80;0.80;;;9.30;99.90;;;;;;5098634;28;20516;-81
2022/01/17 11:56:40;;;;;;;1.20;1.02;;;9.30;99.90;;;;;;5107059;28;20451;-80
2022/01/17 11:59:36;;;;;;;0.83;0.83;;;9.30;99.90;;;;;;5096873;28;20218;-81
2022/01/17 12:02:32;;;;;;;1.30;1.00;;;9.30;99.90;;;;;;5102400;28;20519;-80
2022/01/17 12:05:35;;;;;;;1.33;1.00;;;9.30;99.90;;;;;;5092554;28;20304;-80
2022/01/17 12:08:09;;;;;;;1.07;1.07;;;9.20;99.90;;;;;;5105164;28;20467;-79
2022/01/17 12:10:50;;;;;;;1.10;1.00;;;9.20;99.90;;;;;;5104273;28;20455;-80
2022/01/17 12:16:32;;;;;;;2.00;1.13;;;9.10;99.90;;;;;;5088832;28;20511;-81
2022/01/17 12:19:11;;;;;;;3.07;0.90;;;9.10;99.90;;;;;;5093165;28;20455;-80
2022/01/17 12:21:41;;;;;;;1.40;1.20;;;9.00;99.90;;;;;;5093733;28;20889;-80
2022/01/17 12:24:39;;;;;;;1.37;1.03;;;9.00;99.90;;;;;;5099842;28;20227;-80
2022/01/17 12:27:22;;;;;;;1.00;0.77;;;9.10;99.90;;;;;;5098543;28;20460;-79
2022/01/17 12:30:10;;;;;;;1.20;0.90;;;9.20;99.90;;;;;;5106924;28;20509;-80
2022/01/17 12:32:54;;;;;;;0.70;0.70;;;9.10;99.90;;;;;;5096788;28;20460;-80
2022/01/17 12:35:30;;;;;;;0.80;0.80;;;9.10;99.90;;;;;;5098337;28;20648;-80
2022/01/17 12:38:07;;;;;;;0.87;0.87;;;9.10;99.90;;;;;;5096441;27;20865;-81
2022/01/17 12:40:56;;;;;;;0.83;0.83;;;9.20;99.90;;;;;;5100925;28;20668;-80
2022/01/17 12:43:31;;;;;;;1.33;1.10;;;9.20;99.90;;;;;;5101340;28;20448;-81
2022/01/17 12:46:02;;;;;;;0.83;0.83;;;9.10;99.90;;;;;;5097151;28;20517;-79
2022/01/17 12:48:33;;;;;;;1.17;0.90;;;9.10;99.90;;;;;;5099746;27;20451;-80
2022/01/17 12:51:07;;;;;;;1.67;1.10;;;9.00;99.90;;;;;;5106335;27;20486;-79
2022/01/17 12:53:36;;;;;;;0.70;0.70;;;8.90;99.90;;;;;;5093760;28;21217;-81
2022/01/17 12:56:06;;;;;;;1.40;0.80;;;8.80;99.90;;;;;;5102779;28;20745;-80
2022/01/17 12:58:37;;;;;;;1.00;0.90;;;8.80;99.90;;;;;;5104580;28;20470;-81
2022/01/17 13:01:07;;;;;;;1.00;0.90;;;8.90;99.90;;;;;;5100023;28;20453;-81
2022/01/17 13:03:38;;;;;;;1.20;1.00;;;8.80;99.90;;;;;;5101447;28;20447;-81
2022/01/17 13:06:12;;;;;;;1.20;1.10;;;8.80;99.90;;;;;;5105206;28;20506;-81
2022/01/17 13:08:42;;;;;;;0.83;0.83;;;8.80;99.90;;;;;;5096385;28;20467;-81
2022/01/17 13:11:15;;;;;;;1.43;0.90;;;8.90;99.90;;;;;;5097296;28;20459;-81
2022/01/17 13:13:48;;;;;;;1.10;1.00;;;8.90;99.90;;;;;;5100878;28;20557;-80
2022/01/17 13:16:20;;;;;;;1.13;1.00;;;8.90;99.90;;;;;;5102963;28;20926;-80
2022/01/17 13:18:50;;;;;;;1.10;0.90;;;8.90;99.90;;;;;;5102517;28;20454;-81
2022/01/17 13:21:21;;;;;;;1.13;1.00;;;8.90;99.90;;;;;;5105055;28;20492;-82
2022/01/17 13:23:54;;;;;;;1.93;1.30;;;8.90;99.90;;;;;;5108141;28;20808;-81
2022/01/17 13:26:25;;;;;;;1.40;1.30;;;8.90;99.90;;;;;;5102298;28;20508;-81
2022/01/17 13:28:56;;;;;;;1.83;1.73;;;8.90;99.90;;;;;;5103425;28;20463;-81
2022/01/17 13:31:27;;;;;;;2.77;1.07;;;8.90;99.90;;;;;;5095691;28;20538;-81
2022/01/17 13:33:57;;;;;;;2.30;0.90;;;9.00;99.90;;;;;;5108817;28;20481;-81
2022/01/17 13:36:28;;;;;;;1.20;1.10;;;9.00;99.90;;;;;;5104064;28;20478;-80
2022/01/17 13:39:04;;;;;;;1.50;1.10;;;9.00;99.90;;;;;;5108758;28;20462;-80